Time;durP1;ratioP1;P1;durP2;ratioP2;P2;SDS_P1;SDS_P2;PMS_P1;PMS_P2;Temp;Humidity;BMP_temperature;BMP_pressure;BME280_temperature;BME280_humidity;BME280_pressure;Samples;Min_cycle;Max_cycle;Signal;HPM_P1;HPM_P2
2022/01/07 00:00:20;;;;;;;17.58;9.02;;;-2.90;99.90;;;;;;4974137;28;20061;-70
2022/01/07 00:02:50;;;;;;;18.40;10.20;;;-2.90;99.90;;;;;;4974288;28;20125;-70
2022/01/07 00:05:18;;;;;;;17.83;9.43;;;-2.90;99.90;;;;;;4974246;28;20297;-70
2022/01/07 00:07:45;;;;;;;18.23;9.50;;;-2.90;99.90;;;;;;4974471;28;20302;-70
2022/01/07 00:10:14;;;;;;;12.90;8.10;;;-3.00;99.90;;;;;;4973850;28;20054;-70
2022/01/07 00:12:41;;;;;;;19.58;9.68;;;-3.00;99.90;;;;;;4988928;28;20317;-70
2022/01/07 00:15:09;;;;;;;17.25;8.23;;;-3.00;99.90;;;;;;4974413;28;20104;-71
2022/01/07 00:17:36;;;;;;;12.73;7.63;;;-3.00;99.90;;;;;;4975447;28;20696;-71
2022/01/07 00:20:05;;;;;;;17.83;8.05;;;-3.10;99.90;;;;;;4973664;28;20069;-70
2022/01/07 00:22:32;;;;;;;13.57;7.80;;;-3.10;99.90;;;;;;4971193;28;20054;-70
2022/01/07 00:24:59;;;;;;;;;;;-3.10;99.90;;;;;;4974153;28;20042;-70
2022/01/07 00:27:28;;;;;;;17.45;8.82;;;-3.10;99.90;;;;;;4974083;28;20404;-71
2022/01/07 00:29:55;;;;;;;15.70;8.65;;;-3.10;99.90;;;;;;4973447;28;20042;-70
2022/01/07 00:32:23;;;;;;;13.73;7.95;;;-3.10;99.90;;;;;;4974371;28;20038;-70
2022/01/07 00:34:50;;;;;;;15.00;8.18;;;-3.10;99.90;;;;;;4973315;28;20088;-70
2022/01/07 00:37:17;;;;;;;14.63;8.27;;;-3.10;99.90;;;;;;4974469;28;20398;-69
2022/01/07 00:39:45;;;;;;;15.82;8.57;;;-3.10;99.90;;;;;;4973365;28;21015;-71
2022/01/07 00:42:12;;;;;;;19.90;8.82;;;-3.20;99.90;;;;;;4972554;28;20038;-70
2022/01/07 00:44:39;;;;;;;17.08;8.30;;;-3.20;99.90;;;;;;4973529;28;20285;-70
2022/01/07 00:47:06;;;;;;;;;;;-3.20;99.90;;;;;;4974042;28;20105;-70
2022/01/07 00:49:33;;;;;;;14.38;7.90;;;-3.30;99.90;;;;;;4973969;28;19930;-70
2022/01/07 00:52:01;;;;;;;15.57;8.23;;;-3.30;99.90;;;;;;4974527;28;20038;-70
2022/01/07 00:54:28;;;;;;;13.50;7.35;;;-3.30;99.90;;;;;;4974913;28;20065;-70
2022/01/07 00:56:55;;;;;;;15.93;7.97;;;-3.40;99.90;;;;;;4973607;28;20054;-71
2022/01/07 00:59:22;;;;;;;12.35;7.13;;;-3.40;99.90;;;;;;4975205;28;20554;-70
2022/01/07 01:01:49;;;;;;;12.55;6.03;;;-3.50;99.90;;;;;;4977106;28;20057;-70
2022/01/07 01:04:35;;;;;;;12.68;5.13;;;-3.50;99.90;;;;;;4987991;28;20125;-71
2022/01/07 01:07:02;;;;;;;13.52;6.65;;;-3.50;99.90;;;;;;4977868;28;20065;-71
2022/01/07 01:09:29;;;;;;;10.48;5.40;;;-3.50;99.90;;;;;;4976584;28;20063;-70
2022/01/07 01:11:57;;;;;;;15.60;7.20;;;-3.50;99.90;;;;;;4975719;28;20473;-70
2022/01/07 01:14:24;;;;;;;16.52;6.90;;;-3.50;99.90;;;;;;4977352;28;20825;-70
2022/01/07 01:16:52;;;;;;;16.35;6.32;;;-3.60;99.90;;;;;;4977027;28;20055;-70
2022/01/07 01:19:19;;;;;;;9.85;6.05;;;-3.60;99.90;;;;;;4991113;28;20070;-70
2022/01/07 01:21:45;;;;;;;10.98;5.05;;;-3.60;99.90;;;;;;4977119;28;20038;-70
2022/01/07 01:24:12;;;;;;;9.63;5.65;;;-3.70;99.90;;;;;;4988612;28;20046;-70
2022/01/07 01:26:40;;;;;;;9.40;6.05;;;-3.70;99.90;;;;;;4991637;28;20058;-70
2022/01/07 01:29:07;;;;;;;9.35;5.03;;;-3.70;99.90;;;;;;4991353;28;20628;-69
2022/01/07 01:31:36;;;;;;;9.57;5.15;;;-3.70;99.90;;;;;;4976429;28;20057;-70
2022/01/07 01:34:04;;;;;;;15.55;7.20;;;-3.70;99.90;;;;;;4976916;28;20050;-70
2022/01/07 01:36:31;;;;;;;16.67;8.23;;;-3.70;99.90;;;;;;4974330;28;20291;-70
2022/01/07 01:38:59;;;;;;;9.90;5.88;;;-3.70;99.90;;;;;;4975998;28;20043;-70
2022/01/07 01:41:27;;;;;;;10.27;5.35;;;-3.70;99.90;;;;;;4977192;28;20034;-70
2022/01/07 01:43:54;;;;;;;10.73;4.22;;;-3.80;99.90;;;;;;4976761;28;20120;-70
2022/01/07 01:46:21;;;;;;;8.95;4.95;;;-3.80;99.90;;;;;;4976665;28;20042;-69
2022/01/07 01:48:48;;;;;;;8.77;4.63;;;-3.90;99.90;;;;;;4976400;28;20141;-70
2022/01/07 01:51:16;;;;;;;8.93;4.82;;;-4.00;99.90;;;;;;4976711;28;20046;-70
2022/01/07 01:53:43;;;;;;;8.20;4.88;;;-4.00;99.90;;;;;;4978926;28;20108;-70
2022/01/07 01:56:10;;;;;;;9.55;5.30;;;-4.10;99.90;;;;;;4974025;28;20092;-70
2022/01/07 01:58:37;;;;;;;10.25;4.50;;;-4.10;99.90;;;;;;4976605;28;20050;-70
2022/01/07 02:01:03;;;;;;;9.55;5.15;;;-4.20;99.90;;;;;;4975884;28;20050;-71
2022/01/07 02:03:31;;;;;;;8.77;4.65;;;-4.20;99.90;;;;;;4974519;28;20121;-70
2022/01/07 02:05:57;;;;;;;6.75;4.65;;;-4.30;99.90;;;;;;4974477;28;20051;-70
2022/01/07 02:08:25;;;;;;;7.07;4.68;;;-4.30;99.90;;;;;;4976321;28;20649;-70
2022/01/07 02:10:52;;;;;;;7.90;4.53;;;-4.30;99.90;;;;;;4989998;28;20460;-70
2022/01/07 02:13:18;;;;;;;10.40;4.63;;;-4.30;99.90;;;;;;4976527;28;20101;-70
2022/01/07 02:15:46;;;;;;;9.98;5.88;;;-4.30;99.90;;;;;;4975259;28;20604;-70
2022/01/07 02:18:17;;;;;;;8.45;5.15;;;-4.20;99.90;;;;;;4978651;28;20054;-70
2022/01/07 02:20:44;;;;;;;9.00;4.90;;;-4.20;99.90;;;;;;4975414;28;20046;-69
2022/01/07 02:23:11;;;;;;;10.15;4.82;;;-4.20;99.90;;;;;;4973651;28;20038;-70
2022/01/07 02:25:37;;;;;;;9.02;5.15;;;-4.20;99.90;;;;;;4981141;28;20077;-70
2022/01/07 02:28:05;;;;;;;14.93;6.18;;;-4.20;99.90;;;;;;4975443;28;20057;-70
2022/01/07 02:30:32;;;;;;;11.02;6.57;;;-4.20;99.90;;;;;;4975336;28;20046;-70
2022/01/07 02:32:59;;;;;;;8.98;5.47;;;-4.20;99.90;;;;;;4975676;28;20031;-70
2022/01/07 02:35:32;;;;;;;12.80;7.38;;;-4.20;99.90;;;;;;4975387;28;20336;-70
2022/01/07 02:37:59;;;;;;;13.13;6.05;;;-4.20;99.90;;;;;;4975630;28;20042;-70
2022/01/07 02:40:26;;;;;;;13.43;6.63;;;-4.20;99.90;;;;;;4975304;28;20054;-71
2022/01/07 02:42:53;;;;;;;11.43;6.15;;;-4.20;99.90;;;;;;4975833;28;20042;-71
2022/01/07 02:45:20;;;;;;;12.95;6.95;;;-4.30;99.90;;;;;;4975134;28;20124;-70
2022/01/07 02:47:55;;;;;;;13.50;5.82;;;-4.30;99.90;;;;;;4975755;28;20046;-71
2022/01/07 02:50:25;;;;;;;14.55;6.45;;;-4.30;99.90;;;;;;4974980;28;20050;-70
2022/01/07 02:52:52;;;;;;;16.77;6.63;;;-4.30;99.90;;;;;;4972581;28;20042;-71
2022/01/07 02:55:20;;;;;;;11.80;6.15;;;-4.30;99.90;;;;;;4973233;28;20066;-72
2022/01/07 02:57:46;;;;;;;15.43;6.50;;;-4.30;99.90;;;;;;4975465;28;20567;-71
2022/01/07 03:00:16;;;;;;;12.50;5.78;;;-4.30;99.90;;;;;;4974915;28;20046;-71
2022/01/07 03:02:44;;;;;;;12.73;6.13;;;-4.30;99.90;;;;;;4975709;28;20035;-71
2022/01/07 03:05:12;;;;;;;14.70;7.93;;;-4.30;99.90;;;;;;4973186;28;20542;-71
2022/01/07 03:07:39;;;;;;;9.82;5.55;;;-4.30;99.90;;;;;;4974545;28;20046;-71
2022/01/07 03:10:07;;;;;;;11.20;5.53;;;-4.30;99.90;;;;;;4974500;28;20159;-71
2022/01/07 03:12:36;;;;;;;11.57;6.05;;;-4.30;99.90;;;;;;4975045;28;20046;-70
2022/01/07 03:15:06;;;;;;;11.48;6.15;;;-4.30;99.90;;;;;;4975127;28;20441;-71
2022/01/07 03:17:33;;;;;;;12.32;6.00;;;-4.30;99.90;;;;;;4978155;28;20075;-70
2022/01/07 03:20:00;;;;;;;10.77;5.82;;;-4.30;99.90;;;;;;4975734;28;20120;-71
2022/01/07 03:22:27;;;;;;;11.95;5.97;;;-4.30;99.90;;;;;;4974120;28;20336;-71
2022/01/07 03:24:53;;;;;;;10.07;4.63;;;-4.30;99.90;;;;;;4974421;28;20536;-71
2022/01/07 03:27:20;;;;;;;9.38;5.30;;;-4.20;99.90;;;;;;4975328;28;20054;-71
2022/01/07 03:29:47;;;;;;;11.70;4.60;;;-4.20;99.90;;;;;;4973751;28;20050;-71
2022/01/07 03:32:14;;;;;;;10.50;4.78;;;-4.20;99.90;;;;;;4975490;28;20038;-71
2022/01/07 03:34:41;;;;;;;8.35;5.55;;;-4.20;99.90;;;;;;4974308;28;20074;-71
2022/01/07 03:37:07;;;;;;;9.55;4.80;;;-4.20;99.90;;;;;;4974533;28;20054;-70
2022/01/07 03:39:34;;;;;;;10.13;4.80;;;-4.10;99.90;;;;;;4974412;28;20054;-71
2022/01/07 03:42:02;;;;;;;9.85;4.85;;;-4.10;99.90;;;;;;4974636;28;20066;-71
2022/01/07 03:44:28;;;;;;;13.52;5.00;;;-4.20;99.90;;;;;;4974728;28;20073;-72
2022/01/07 03:46:55;;;;;;;5.65;3.85;;;-4.20;99.90;;;;;;4974040;28;20057;-71
2022/01/07 03:49:22;;;;;;;8.02;4.72;;;-4.30;99.90;;;;;;4974304;28;20066;-71
2022/01/07 03:51:49;;;;;;;5.60;3.80;;;-4.30;99.90;;;;;;4971693;28;20104;-71
2022/01/07 03:54:15;;;;;;;8.32;3.92;;;-4.40;99.90;;;;;;4977336;28;20104;-71
2022/01/07 03:56:42;;;;;;;6.05;3.30;;;-4.40;99.90;;;;;;4974274;28;20046;-71
2022/01/07 03:59:09;;;;;;;7.25;4.38;;;-4.50;99.90;;;;;;4971346;28;20062;-71
2022/01/07 04:01:36;;;;;;;7.03;4.30;;;-4.50;99.90;;;;;;4973786;28;20578;-71
2022/01/07 04:04:03;;;;;;;7.20;3.83;;;-4.60;99.90;;;;;;4974187;28;20484;-70
2022/01/07 04:06:30;;;;;;;7.47;3.90;;;-4.60;99.90;;;;;;4971957;28;20082;-71
2022/01/07 04:08:57;;;;;;;8.13;3.80;;;-4.70;99.90;;;;;;4973335;28;20057;-70
2022/01/07 04:11:24;;;;;;;7.28;5.03;;;-4.70;99.90;;;;;;4974761;28;20065;-71
2022/01/07 04:13:55;;;;;;;6.78;3.67;;;-4.70;99.90;;;;;;4973962;28;20268;-70
2022/01/07 04:16:22;;;;;;;6.18;3.75;;;-4.80;99.90;;;;;;4973863;28;20475;-71
2022/01/07 04:18:49;;;;;;;5.78;3.30;;;-4.80;99.90;;;;;;4975477;28;20135;-70
2022/01/07 04:21:16;;;;;;;6.53;2.63;;;-5.00;99.90;;;;;;4974038;28;20412;-70
2022/01/07 04:23:42;;;;;;;5.88;2.70;;;-5.00;99.90;;;;;;4974075;28;20042;-70
2022/01/07 04:26:09;;;;;;;4.85;2.65;;;-5.10;99.90;;;;;;4973804;28;20043;-70
2022/01/07 04:28:36;;;;;;;5.60;2.60;;;-5.20;99.90;;;;;;4974619;28;20125;-71
2022/01/07 04:31:03;;;;;;;6.70;4.32;;;-5.20;99.90;;;;;;4973487;28;20077;-71
2022/01/07 04:33:32;;;;;;;4.65;2.53;;;-5.30;99.90;;;;;;4973780;28;20055;-71
2022/01/07 04:35:59;;;;;;;5.65;3.22;;;-5.30;99.90;;;;;;4978307;28;20433;-72
2022/01/07 04:38:26;;;;;;;4.40;2.72;;;-5.30;99.90;;;;;;4977423;28;20073;-71
2022/01/07 04:40:53;;;;;;;5.07;3.10;;;-5.30;99.90;;;;;;4977761;28;20038;-71
2022/01/07 04:43:20;;;;;;;7.03;3.22;;;-5.30;99.90;;;;;;4977922;28;20643;-71
2022/01/07 04:45:47;;;;;;;13.38;4.47;;;-5.30;99.90;;;;;;4977362;28;20073;-71
2022/01/07 04:48:14;;;;;;;7.28;3.75;;;-5.30;99.90;;;;;;4977792;28;20440;-71
2022/01/07 04:50:41;;;;;;;6.95;3.30;;;-5.20;99.90;;;;;;4978047;28;20557;-71
2022/01/07 04:53:08;;;;;;;8.02;4.28;;;-5.20;99.90;;;;;;4994220;28;20579;-70
2022/01/07 04:55:37;;;;;;;7.32;3.08;;;-5.20;99.90;;;;;;4977496;28;20093;-71
2022/01/07 04:58:09;;;;;;;7.07;2.78;;;-5.20;99.90;;;;;;4977627;28;20421;-70
2022/01/07 05:00:37;;;;;;;10.77;4.63;;;-5.20;99.90;;;;;;4976915;28;20053;-71
2022/01/07 05:03:04;;;;;;;14.55;4.68;;;-5.20;99.90;;;;;;4977685;28;20202;-70
2022/01/07 05:05:31;;;;;;;15.40;6.50;;;-5.20;99.90;;;;;;4977128;28;20157;-70
2022/01/07 05:07:58;;;;;;;17.50;6.20;;;-5.20;99.90;;;;;;4977452;28;20571;-71
2022/01/07 05:10:25;;;;;;;12.23;5.63;;;-5.20;99.90;;;;;;4976910;28;20127;-70
2022/01/07 05:12:52;;;;;;;19.77;7.22;;;-5.20;99.90;;;;;;4977444;28;20548;-71
2022/01/07 05:15:19;;;;;;;15.52;5.72;;;-5.20;99.90;;;;;;4977029;28;20065;-71
2022/01/07 05:17:46;;;;;;;11.65;4.60;;;-5.10;99.90;;;;;;4978995;28;20448;-70
2022/01/07 05:20:15;;;;;;;10.32;3.88;;;-5.10;99.90;;;;;;4980627;28;20111;-70
2022/01/07 05:22:43;;;;;;;9.48;3.53;;;-5.10;99.90;;;;;;4977101;28;20458;-70
2022/01/07 05:25:11;;;;;;;6.90;3.42;;;-5.10;99.90;;;;;;4974493;28;20046;-71
2022/01/07 05:27:39;;;;;;;12.18;4.00;;;-5.10;99.90;;;;;;4976743;28;20057;-71
2022/01/07 05:30:08;;;;;;;10.43;4.95;;;-5.10;99.90;;;;;;4990983;28;20286;-70
2022/01/07 05:32:35;;;;;;;12.90;4.63;;;-5.10;99.90;;;;;;4977262;28;20061;-70
2022/01/07 05:35:01;;;;;;;13.60;6.30;;;-5.00;99.90;;;;;;4976332;28;20046;-70
2022/01/07 05:37:28;;;;;;;6.95;3.67;;;-5.00;99.90;;;;;;4976818;28;20122;-70
2022/01/07 05:39:57;;;;;;;10.00;4.15;;;-5.00;99.90;;;;;;4976111;28;20162;-71
2022/01/07 05:42:24;;;;;;;10.88;4.28;;;-5.10;99.90;;;;;;4976814;28;20129;-70
2022/01/07 05:44:51;;;;;;;15.95;5.95;;;-5.00;99.90;;;;;;4975210;28;20124;-71
2022/01/07 05:47:18;;;;;;;14.98;6.68;;;-5.00;99.90;;;;;;4977205;28;20093;-71
2022/01/07 05:49:45;;;;;;;17.13;7.82;;;-5.00;99.90;;;;;;4976554;28;20448;-71
2022/01/07 05:52:11;;;;;;;17.35;7.13;;;-4.90;99.90;;;;;;4977090;28;20038;-70
2022/01/07 05:54:38;;;;;;;18.08;6.55;;;-4.90;99.90;;;;;;4976736;28;20236;-70
2022/01/07 05:57:06;;;;;;;15.50;6.75;;;-4.90;99.90;;;;;;4975875;28;20414;-69
2022/01/07 05:59:33;;;;;;;16.02;6.57;;;-4.90;99.90;;;;;;4975759;28;20050;-68
2022/01/07 06:02:01;;;;;;;17.75;6.70;;;-4.80;99.90;;;;;;4976241;28;20218;-69
2022/01/07 06:04:28;;;;;;;15.38;6.13;;;-4.80;99.90;;;;;;4976253;28;20493;-69
2022/01/07 06:06:54;;;;;;;14.15;7.07;;;-4.80;99.90;;;;;;4975571;28;20501;-69
2022/01/07 06:09:21;;;;;;;22.48;7.93;;;-4.70;99.90;;;;;;4975491;28;20042;-69
2022/01/07 06:11:48;;;;;;;13.85;7.10;;;-4.70;99.90;;;;;;4974675;28;20050;-69
2022/01/07 06:14:15;;;;;;;11.45;6.35;;;-4.70;99.90;;;;;;4975379;28;20054;-69
2022/01/07 06:16:45;;;;;;;13.13;6.20;;;-4.70;99.90;;;;;;4977822;28;20053;-69
2022/01/07 06:19:12;;;;;;;10.43;5.93;;;-4.60;99.90;;;;;;4971278;28;20618;-69
2022/01/07 06:21:38;;;;;;;10.10;5.55;;;-4.60;99.90;;;;;;4975615;28;20358;-69
2022/01/07 06:24:06;;;;;;;11.15;5.57;;;-4.60;99.90;;;;;;4972199;28;20046;-70
2022/01/07 06:26:33;;;;;;;8.75;4.72;;;-4.60;99.90;;;;;;4974319;28;20330;-70
2022/01/07 06:28:59;;;;;;;8.68;4.60;;;-4.60;99.90;;;;;;4973263;28;20452;-69
2022/01/07 06:31:26;;;;;;;14.10;5.20;;;-4.60;99.90;;;;;;4974621;28;20124;-69
2022/01/07 06:33:53;;;;;;;6.15;3.90;;;-4.60;99.90;;;;;;4975233;28;20050;-69
2022/01/07 06:36:20;;;;;;;9.20;5.05;;;-4.60;99.90;;;;;;4974474;28;20303;-69
2022/01/07 06:38:47;;;;;;;14.52;6.38;;;-4.60;99.90;;;;;;4974570;28;20470;-60
2022/01/07 06:41:13;;;;;;;12.75;5.93;;;-4.60;99.90;;;;;;4974785;28;20108;-60
2022/01/07 06:43:40;;;;;;;12.23;5.45;;;-4.60;99.90;;;;;;4973792;28;20054;-60
2022/01/07 06:46:08;;;;;;;8.73;5.25;;;-4.60;99.90;;;;;;4973771;28;20046;-60
2022/01/07 06:48:35;;;;;;;9.98;5.82;;;-4.70;99.90;;;;;;4974662;28;20457;-60
2022/01/07 06:51:01;;;;;;;8.13;5.38;;;-4.70;99.90;;;;;;4973799;28;20057;-60
2022/01/07 06:53:30;;;;;;;11.23;6.00;;;-4.70;99.90;;;;;;4976276;28;20681;-60
2022/01/07 06:55:57;;;;;;;11.00;5.88;;;-4.70;99.90;;;;;;4973824;28;20058;-60
2022/01/07 06:58:24;;;;;;;9.40;6.00;;;-4.80;99.90;;;;;;4974482;28;20046;-60
2022/01/07 07:00:52;;;;;;;13.07;6.18;;;-4.70;99.90;;;;;;4973486;28;20074;-60
2022/01/07 07:03:19;;;;;;;12.98;6.63;;;-4.80;99.90;;;;;;4974201;28;20050;-60
2022/01/07 07:05:46;;;;;;;12.05;6.55;;;-4.90;99.90;;;;;;4973579;28;20053;-59
2022/01/07 07:08:12;;;;;;;11.52;5.70;;;-4.90;99.90;;;;;;4974739;28;20042;-60
2022/01/07 07:10:39;;;;;;;12.15;6.30;;;-4.90;99.90;;;;;;4973819;28;20074;-60
2022/01/07 07:13:06;;;;;;;9.10;5.65;;;-4.90;99.90;;;;;;4973412;28;20042;-60
2022/01/07 07:15:33;;;;;;;11.10;6.03;;;-5.00;99.90;;;;;;4974082;28;20038;-60
2022/01/07 07:17:59;;;;;;;12.88;5.97;;;-5.00;99.90;;;;;;4990469;28;20583;-60
2022/01/07 07:20:26;;;;;;;16.88;7.45;;;-5.10;99.90;;;;;;4973194;28;20100;-60
2022/01/07 07:22:53;;;;;;;12.07;6.90;;;-5.10;99.90;;;;;;4974015;28;20322;-61
2022/01/07 07:25:22;;;;;;;11.85;6.30;;;-5.00;99.90;;;;;;4973735;28;20113;-60
2022/01/07 07:27:50;;;;;;;13.63;6.38;;;-5.00;99.90;;;;;;4971357;28;20036;-60
2022/01/07 07:30:17;;;;;;;10.70;6.10;;;-5.00;99.90;;;;;;4973705;28;20042;-60
2022/01/07 07:32:44;;;;;;;13.70;6.32;;;-5.00;99.90;;;;;;4973842;28;20069;-60
2022/01/07 07:37:48;;;;;;;9.53;5.80;;;-5.00;99.90;;;;;;4973859;28;20042;-60
2022/01/07 07:40:15;;;;;;;17.05;5.72;;;-4.90;99.90;;;;;;4987719;28;20049;-60
2022/01/07 07:42:42;;;;;;;13.45;6.22;;;-4.80;99.90;;;;;;4973599;28;20054;-60
2022/01/07 07:45:15;;;;;;;10.30;6.15;;;-4.80;99.90;;;;;;4980251;28;20089;-60
2022/01/07 07:47:42;;;;;;;12.50;6.60;;;-4.80;99.90;;;;;;4973804;28;20050;-60
2022/01/07 07:50:13;;;;;;;10.40;6.35;;;-4.80;99.90;;;;;;4973246;28;20053;-60
2022/01/07 07:52:40;;;;;;;8.98;5.35;;;-4.80;99.90;;;;;;4973137;28;20848;-60
2022/01/07 07:55:07;;;;;;;10.98;6.40;;;-4.90;99.90;;;;;;4974813;28;20042;-60
2022/01/07 07:57:34;;;;;;;10.80;6.18;;;-4.90;99.90;;;;;;4972763;28;20120;-60
2022/01/07 08:00:02;;;;;;;11.82;5.85;;;-4.90;99.90;;;;;;4972908;28;20046;-61
2022/01/07 08:02:39;;;;;;;9.40;5.60;;;-4.90;99.90;;;;;;4972537;28;20057;-60
2022/01/07 08:05:06;;;;;;;14.77;5.18;;;-4.90;99.90;;;;;;4972459;28;20038;-60
2022/01/07 08:07:33;;;;;;;8.88;4.65;;;-4.90;99.90;;;;;;4973260;28;20336;-60
2022/01/07 08:10:00;;;;;;;9.65;5.22;;;-4.90;99.90;;;;;;4972873;28;20677;-60
2022/01/07 08:12:49;;;;;;;5.63;3.95;;;-4.90;99.90;;;;;;4973065;28;20626;-61
2022/01/07 08:17:59;;;;;;;8.07;4.15;;;-4.80;99.90;;;;;;4975425;28;20215;-58
2022/01/07 08:20:26;;;;;;;10.48;4.90;;;-4.70;99.90;;;;;;4971176;28;20505;-57
2022/01/07 08:22:52;;;;;;;6.95;3.85;;;-4.70;99.90;;;;;;4973492;28;20050;-58
2022/01/07 08:25:19;;;;;;;8.90;4.43;;;-4.70;99.90;;;;;;4973192;28;20512;-58
2022/01/07 08:27:46;;;;;;;6.10;3.35;;;-4.70;99.90;;;;;;4972447;28;20042;-59
2022/01/07 08:30:20;;;;;;;8.45;4.25;;;-4.70;99.90;;;;;;4970767;28;20097;-58
2022/01/07 08:35:36;;;;;;;4.95;3.05;;;-4.60;99.90;;;;;;4969186;28;20061;-62
2022/01/07 08:38:03;;;;;;;6.20;3.30;;;-4.60;99.90;;;;;;4972249;28;20057;-62
2022/01/07 08:40:30;;;;;;;9.30;4.10;;;-4.50;99.90;;;;;;4968617;28;20132;-58
2022/01/07 08:42:57;;;;;;;10.82;5.18;;;-4.50;99.90;;;;;;4972459;28;20117;-60
2022/01/07 08:45:25;;;;;;;8.65;4.55;;;-4.50;99.90;;;;;;4972239;28;20043;-63
2022/01/07 08:47:52;;;;;;;8.27;4.65;;;-4.50;99.90;;;;;;4973173;28;20130;-57
2022/01/07 08:50:19;;;;;;;8.80;4.40;;;-4.50;99.90;;;;;;4988624;28;20047;-57
2022/01/07 08:52:46;;;;;;;8.90;4.43;;;-4.50;99.90;;;;;;4972683;28;20030;-57
2022/01/07 08:55:13;;;;;;;9.18;5.28;;;-4.40;99.90;;;;;;4973225;28;20052;-57
2022/01/07 08:57:40;;;;;;;9.30;4.35;;;-4.40;99.90;;;;;;4973407;28;20070;-56
2022/01/07 09:00:07;;;;;;;11.35;5.38;;;-4.30;99.90;;;;;;4971676;28;20117;-57
2022/01/07 09:02:34;;;;;;;9.70;5.07;;;-4.30;99.90;;;;;;4972688;28;20464;-57
2022/01/07 09:05:01;;;;;;;7.05;4.43;;;-4.20;99.90;;;;;;4971859;28;20112;-57
2022/01/07 09:07:28;;;;;;;7.25;3.90;;;-4.00;99.90;;;;;;4973109;28;20248;-60
2022/01/07 09:09:54;;;;;;;8.45;4.40;;;-3.80;99.90;;;;;;4971855;28;20119;-57
2022/01/07 09:12:21;;;;;;;7.28;4.30;;;-3.70;99.90;;;;;;4972233;28;20098;-57
2022/01/07 09:14:48;;;;;;;6.70;4.47;;;-3.50;99.90;;;;;;4969335;28;20125;-56
2022/01/07 09:17:15;;;;;;;13.63;5.80;;;-3.40;99.90;;;;;;4989189;28;20218;-57
2022/01/07 09:19:41;;;;;;;14.48;5.38;;;-3.10;99.90;;;;;;4972517;28;20318;-58
2022/01/07 09:22:09;;;;;;;10.52;5.10;;;-2.90;99.90;;;;;;4976082;28;20046;-61
2022/01/07 09:24:36;;;;;;;6.75;4.07;;;-2.50;99.90;;;;;;4976065;28;20046;-61
2022/01/07 09:27:03;;;;;;;8.77;4.90;;;-2.10;99.90;;;;;;4975716;28;20058;-61
2022/01/07 09:29:29;;;;;;;7.70;4.68;;;-1.60;99.90;;;;;;4975153;28;20524;-56
2022/01/07 09:31:56;;;;;;;10.35;5.88;;;-1.20;99.90;;;;;;4976208;28;20043;-56
2022/01/07 09:34:23;;;;;;;10.65;5.13;;;-0.70;99.90;;;;;;4975628;28;20043;-61
2022/01/07 09:36:54;;;;;;;7.35;4.80;;;-0.50;99.90;;;;;;4976832;28;20069;-60
2022/01/07 09:39:21;;;;;;;8.10;4.93;;;-0.20;99.90;;;;;;4975125;28;20205;-61
2022/01/07 09:41:48;;;;;;;9.48;4.20;;;-0.10;99.90;;;;;;4972898;28;20101;-60
2022/01/07 09:44:15;;;;;;;;;;;0.00;99.90;;;;;;4976299;28;20532;-61
2022/01/07 09:46:42;;;;;;;9.13;4.53;;;0.10;99.90;;;;;;4975915;28;19987;-60
2022/01/07 09:49:08;;;;;;;6.90;4.00;;;0.10;99.90;;;;;;4972480;28;20165;-57
2022/01/07 09:51:40;;;;;;;6.18;3.60;;;0.10;99.90;;;;;;4975530;28;20552;-58
2022/01/07 09:54:08;;;;;;;8.35;3.70;;;0.10;99.90;;;;;;4976810;28;20034;-57
2022/01/07 09:56:35;;;;;;;5.80;3.75;;;0.10;99.90;;;;;;4975101;28;20078;-57
2022/01/07 09:59:05;;;;;;;5.82;4.13;;;0.10;99.90;;;;;;4974200;28;20117;-57
2022/01/07 10:01:55;;;;;;;7.35;4.20;;;0.10;99.90;;;;;;4973995;28;20053;-60
2022/01/07 10:04:34;;;;;;;9.55;4.20;;;0.10;99.90;;;;;;4974228;28;20604;-60
2022/01/07 10:07:21;;;;;;;8.43;3.58;;;0.10;99.90;;;;;;4974246;28;20081;-60
2022/01/07 10:10:08;;;;;;;5.00;3.78;;;0.10;99.90;;;;;;4970991;28;20306;-57
2022/01/07 10:12:51;;;;;;;5.03;2.95;;;0.20;99.90;;;;;;4973841;28;20050;-62
2022/01/07 10:15:25;;;;;;;4.47;3.20;;;0.20;99.90;;;;;;4973761;28;20590;-58
2022/01/07 10:18:02;;;;;;;6.50;3.38;;;0.20;99.90;;;;;;4975880;28;20135;-58
2022/01/07 10:20:40;;;;;;;6.18;3.42;;;0.30;99.90;;;;;;4971226;28;20065;-58
2022/01/07 10:23:14;;;;;;;4.93;3.58;;;0.30;99.90;;;;;;4974494;28;20423;-58
2022/01/07 10:25:46;;;;;;;6.88;3.65;;;0.40;99.90;;;;;;4975228;28;20125;-61
2022/01/07 10:28:16;;;;;;;4.20;2.80;;;0.50;99.90;;;;;;4973778;28;20563;-60
2022/01/07 10:30:47;;;;;;;3.97;2.40;;;0.60;99.90;;;;;;4974804;28;20264;-60
2022/01/07 10:33:17;;;;;;;7.50;2.95;;;0.70;99.90;;;;;;4971923;28;20057;-57
2022/01/07 10:35:45;;;;;;;3.78;2.75;;;0.90;99.90;;;;;;4975172;28;20038;-57
2022/01/07 10:38:21;;;;;;;6.60;2.80;;;1.10;99.90;;;;;;4974887;28;20053;-57
2022/01/07 10:40:50;;;;;;;5.30;2.83;;;1.20;99.90;;;;;;4973072;28;20050;-58
2022/01/07 10:43:21;;;;;;;4.35;2.05;;;1.30;99.90;;;;;;4974242;28;20039;-57
2022/01/07 10:45:55;;;;;;;3.50;2.20;;;1.40;99.90;;;;;;4973800;28;20054;-57
2022/01/07 10:48:25;;;;;;;4.90;3.00;;;1.50;99.90;;;;;;4974542;28;20057;-60
2022/01/07 10:50:52;;;;;;;2.72;1.90;;;1.70;99.90;;;;;;4973917;28;20413;-59
2022/01/07 10:53:28;;;;;;;6.05;3.13;;;1.80;99.90;;;;;;4976064;28;20090;-60
2022/01/07 10:55:58;;;;;;;6.93;3.90;;;1.90;99.90;;;;;;4974661;28;20217;-60
2022/01/07 10:58:25;;;;;;;6.03;3.00;;;2.00;99.90;;;;;;4973839;28;20042;-60
2022/01/07 11:00:52;;;;;;;5.57;3.17;;;2.20;99.90;;;;;;4974192;28;20101;-59
2022/01/07 11:03:19;;;;;;;6.65;3.45;;;2.40;99.90;;;;;;4974132;28;20153;-59
2022/01/07 11:05:46;;;;;;;8.40;4.38;;;2.60;99.90;;;;;;4973756;28;20330;-60
2022/01/07 11:08:16;;;;;;;6.18;3.15;;;2.70;99.90;;;;;;4989477;28;20069;-60
2022/01/07 11:10:43;;;;;;;4.93;3.40;;;2.80;99.90;;;;;;4972794;28;20738;-59
2022/01/07 11:13:10;;;;;;;;;;;2.80;99.90;;;;;;4989539;28;20104;-60
2022/01/07 11:15:37;;;;;;;7.97;3.80;;;2.80;99.90;;;;;;4974036;28;19926;-59
2022/01/07 11:18:04;;;;;;;5.30;4.05;;;2.70;99.90;;;;;;4974417;28;20042;-59
2022/01/07 11:20:31;;;;;;;;;;;2.50;99.90;;;;;;4973959;28;20093;-60
2022/01/07 11:22:58;;;;;;;6.85;3.72;;;2.50;99.90;;;;;;4973387;28;20450;-61
2022/01/07 11:25:32;;;;;;;6.65;3.83;;;2.40;99.90;;;;;;4971423;28;20046;-60
2022/01/07 11:28:00;;;;;;;11.68;4.32;;;2.30;99.90;;;;;;4974204;28;20042;-60
2022/01/07 11:30:33;;;;;;;5.43;3.60;;;2.20;99.90;;;;;;4972826;28;20062;-60
2022/01/07 11:33:00;;;;;;;8.20;4.57;;;2.10;99.90;;;;;;4988284;28;20519;-60
2022/01/07 11:35:27;;;;;;;6.47;3.47;;;2.00;99.90;;;;;;4973040;28;20046;-61
2022/01/07 11:37:55;;;;;;;5.88;3.80;;;1.90;99.90;;;;;;4974039;28;20050;-61
2022/01/07 11:40:31;;;;;;;13.05;4.00;;;1.90;99.90;;;;;;4974432;28;20500;-60
2022/01/07 11:43:13;;;;;;;5.53;3.55;;;1.80;99.90;;;;;;4988747;28;20046;-60
2022/01/07 11:45:41;;;;;;;10.00;4.15;;;1.80;99.90;;;;;;4972062;28;20591;-58
2022/01/07 11:48:15;;;;;;;7.18;2.97;;;1.80;99.90;;;;;;4970770;28;20517;-61
2022/01/07 11:50:54;;;;;;;5.63;3.30;;;1.80;99.90;;;;;;4970414;28;20045;-59
2022/01/07 11:53:37;;;;;;;7.88;3.85;;;1.80;99.90;;;;;;4973079;28;20042;-56
2022/01/07 11:56:05;;;;;;;8.25;4.03;;;1.80;99.90;;;;;;4970579;28;20077;-55
2022/01/07 11:58:47;;;;;;;5.80;3.30;;;1.80;99.90;;;;;;4972424;28;20425;-59
2022/01/07 12:01:24;;;;;;;5.72;3.15;;;1.80;99.90;;;;;;4986570;28;20042;-61
2022/01/07 12:03:59;;;;;;;4.40;2.78;;;1.80;99.90;;;;;;4972942;28;20122;-59
2022/01/07 12:06:38;;;;;;;5.72;3.45;;;1.80;99.90;;;;;;4969670;28;20054;-60
2022/01/07 12:09:06;;;;;;;5.90;3.00;;;1.80;99.90;;;;;;4971366;28;20050;-56
2022/01/07 12:11:37;;;;;;;4.45;3.05;;;1.80;99.90;;;;;;4970728;28;20042;-59
2022/01/07 12:14:10;;;;;;;7.85;3.58;;;1.80;99.90;;;;;;4967764;28;20054;-59
2022/01/07 12:16:38;;;;;;;3.88;2.47;;;1.80;99.90;;;;;;4971453;28;20053;-56
2022/01/07 12:19:18;;;;;;;4.70;2.83;;;1.80;99.90;;;;;;4966489;28;20433;-55
2022/01/07 12:21:46;;;;;;;3.70;2.65;;;1.80;99.90;;;;;;4967766;28;20116;-56
2022/01/07 12:24:44;;;;;;;4.63;2.25;;;1.70;99.90;;;;;;4970417;28;20567;-56
2022/01/07 12:27:20;;;;;;;3.58;2.40;;;1.70;99.90;;;;;;4968460;28;20058;-56
2022/01/07 12:29:53;;;;;;;3.20;2.38;;;1.60;99.90;;;;;;4970105;28;20129;-56
2022/01/07 12:32:20;;;;;;;4.50;2.63;;;1.60;99.90;;;;;;4970681;28;20046;-55
2022/01/07 12:34:50;;;;;;;4.30;2.60;;;1.60;99.90;;;;;;4969872;28;20501;-56
2022/01/07 12:37:21;;;;;;;5.80;3.13;;;1.60;99.90;;;;;;4967425;28;20046;-56
2022/01/07 12:39:50;;;;;;;4.50;2.40;;;1.60;99.90;;;;;;4969184;28;20046;-56
2022/01/07 12:42:18;;;;;;;6.45;3.20;;;1.60;99.90;;;;;;4970369;28;20046;-56
2022/01/07 12:44:47;;;;;;;4.63;2.72;;;1.60;99.90;;;;;;4968859;28;20074;-56
2022/01/07 12:47:16;;;;;;;4.53;2.83;;;1.60;99.90;;;;;;4970613;28;20046;-56
2022/01/07 12:49:47;;;;;;;5.68;3.50;;;1.60;99.90;;;;;;4969506;28;20095;-56
2022/01/07 12:52:31;;;;;;;4.10;2.38;;;1.60;99.90;;;;;;4970623;28;20046;-55
2022/01/07 12:55:16;;;;;;;3.47;2.40;;;1.60;99.90;;;;;;4971590;28;20414;-56
2022/01/07 12:57:48;;;;;;;7.50;4.60;;;1.60;99.90;;;;;;4976030;28;20054;-55
2022/01/07 13:00:29;;;;;;;6.70;4.50;;;1.60;99.90;;;;;;4975928;28;20042;-56